sensor_id;sensor_type;location;lat;lon;timestamp;P1;durP1;ratioP1;P2;durP2;ratioP2
73840;SDS011;62183;49.006;12.102;2022-11-14T00:01:52;29.07;;;17.30;;
73840;SDS011;62183;49.006;12.102;2022-11-14T00:04:18;28.30;;;16.30;;
73840;SDS011;62183;49.006;12.102;2022-11-14T00:06:43;35.43;;;17.83;;
73840;SDS011;62183;49.006;12.102;2022-11-14T00:09:08;37.23;;;18.07;;
73840;SDS011;62183;49.006;12.102;2022-11-14T00:11:33;38.40;;;22.07;;
73840;SDS011;62183;49.006;12.102;2022-11-14T00:13:58;32.70;;;18.53;;
73840;SDS011;62183;49.006;12.102;2022-11-14T00:16:23;40.07;;;21.50;;
73840;SDS011;62183;49.006;12.102;2022-11-14T00:18:49;33.77;;;17.53;;
73840;SDS011;62183;49.006;12.102;2022-11-14T00:21:14;36.37;;;20.43;;
73840;SDS011;62183;49.006;12.102;2022-11-14T00:23:39;34.73;;;18.90;;
73840;SDS011;62183;49.006;12.102;2022-11-14T00:26:04;34.03;;;20.37;;
73840;SDS011;62183;49.006;12.102;2022-11-14T00:28:29;32.60;;;18.40;;
73840;SDS011;62183;49.006;12.102;2022-11-14T00:30:55;32.07;;;17.70;;
73840;SDS011;62183;49.006;12.102;2022-11-14T00:33:20;39.43;;;20.47;;
73840;SDS011;62183;49.006;12.102;2022-11-14T00:35:49;35.50;;;18.50;;
73840;SDS011;62183;49.006;12.102;2022-11-14T00:38:14;33.40;;;18.67;;
73840;SDS011;62183;49.006;12.102;2022-11-14T00:40:39;34.57;;;19.37;;
73840;SDS011;62183;49.006;12.102;2022-11-14T00:43:04;33.47;;;19.67;;
73840;SDS011;62183;49.006;12.102;2022-11-14T00:45:29;32.17;;;18.53;;
73840;SDS011;62183;49.006;12.102;2022-11-14T00:47:55;35.87;;;20.33;;
73840;SDS011;62183;49.006;12.102;2022-11-14T00:50:20;29.23;;;17.13;;
73840;SDS011;62183;49.006;12.102;2022-11-14T00:52:45;36.47;;;19.20;;
73840;SDS011;62183;49.006;12.102;2022-11-14T00:55:10;32.07;;;17.77;;
73840;SDS011;62183;49.006;12.102;2022-11-14T00:57:35;34.90;;;18.77;;
73840;SDS011;62183;49.006;12.102;2022-11-14T01:00:01;29.37;;;16.73;;
73840;SDS011;62183;49.006;12.102;2022-11-14T01:02:26;32.47;;;18.80;;
73840;SDS011;62183;49.006;12.102;2022-11-14T01:04:51;32.67;;;17.47;;
73840;SDS011;62183;49.006;12.102;2022-11-14T01:07:16;33.83;;;19.67;;
73840;SDS011;62183;49.006;12.102;2022-11-14T01:09:42;34.45;;;17.45;;
73840;SDS011;62183;49.006;12.102;2022-11-14T01:12:07;30.60;;;16.53;;
73840;SDS011;62183;49.006;12.102;2022-11-14T01:14:32;31.50;;;18.10;;
73840;SDS011;62183;49.006;12.102;2022-11-14T01:16:57;30.73;;;16.90;;
73840;SDS011;62183;49.006;12.102;2022-11-14T01:19:22;33.40;;;19.50;;
73840;SDS011;62183;49.006;12.102;2022-11-14T01:21:48;28.17;;;16.80;;
73840;SDS011;62183;49.006;12.102;2022-11-14T01:24:13;33.17;;;18.90;;
73840;SDS011;62183;49.006;12.102;2022-11-14T01:26:38;31.52;;;18.08;;
73840;SDS011;62183;49.006;12.102;2022-11-14T01:29:03;35.47;;;19.17;;
73840;SDS011;62183;49.006;12.102;2022-11-14T01:31:28;32.13;;;16.93;;
73840;SDS011;62183;49.006;12.102;2022-11-14T01:33:54;32.13;;;17.80;;
73840;SDS011;62183;49.006;12.102;2022-11-14T01:36:19;29.17;;;17.03;;
73840;SDS011;62183;49.006;12.102;2022-11-14T01:38:44;34.58;;;19.77;;
73840;SDS011;62183;49.006;12.102;2022-11-14T01:41:11;28.35;;;14.77;;
73840;SDS011;62183;49.006;12.102;2022-11-14T01:43:37;31.17;;;17.58;;
73840;SDS011;62183;49.006;12.102;2022-11-14T01:46:04;29.30;;;16.92;;
73840;SDS011;62183;49.006;12.102;2022-11-14T01:48:40;28.77;;;16.88;;
73840;SDS011;62183;49.006;12.102;2022-11-14T01:53:51;26.17;;;15.70;;
73840;SDS011;62183;49.006;12.102;2022-11-14T01:56:18;29.77;;;16.05;;
73840;SDS011;62183;49.006;12.102;2022-11-14T01:58:50;26.73;;;14.95;;
73840;SDS011;62183;49.006;12.102;2022-11-14T02:01:16;28.27;;;16.40;;
73840;SDS011;62183;49.006;12.102;2022-11-14T02:03:41;27.70;;;15.67;;
73840;SDS011;62183;49.006;12.102;2022-11-14T02:06:08;29.80;;;16.50;;
73840;SDS011;62183;49.006;12.102;2022-11-14T02:08:35;29.10;;;15.90;;
73840;SDS011;62183;49.006;12.102;2022-11-14T02:11:00;25.40;;;14.43;;
73840;SDS011;62183;49.006;12.102;2022-11-14T02:13:26;33.53;;;16.52;;
73840;SDS011;62183;49.006;12.102;2022-11-14T02:15:51;28.50;;;16.17;;
73840;SDS011;62183;49.006;12.102;2022-11-14T02:18:16;26.03;;;14.80;;
73840;SDS011;62183;49.006;12.102;2022-11-14T02:20:41;30.52;;;16.60;;
73840;SDS011;62183;49.006;12.102;2022-11-14T02:23:07;25.27;;;14.38;;
73840;SDS011;62183;49.006;12.102;2022-11-14T02:25:32;28.65;;;15.30;;
73840;SDS011;62183;49.006;12.102;2022-11-14T02:27:57;28.63;;;15.60;;
73840;SDS011;62183;49.006;12.102;2022-11-14T02:30:24;31.15;;;15.93;;
73840;SDS011;62183;49.006;12.102;2022-11-14T02:32:49;23.45;;;14.75;;
73840;SDS011;62183;49.006;12.102;2022-11-14T02:35:14;27.27;;;15.43;;
73840;SDS011;62183;49.006;12.102;2022-11-14T02:37:39;26.10;;;14.53;;
73840;SDS011;62183;49.006;12.102;2022-11-14T02:40:05;27.97;;;14.80;;
73840;SDS011;62183;49.006;12.102;2022-11-14T02:42:30;24.55;;;14.55;;
73840;SDS011;62183;49.006;12.102;2022-11-14T02:44:55;22.40;;;13.23;;
73840;SDS011;62183;49.006;12.102;2022-11-14T02:47:20;24.90;;;15.20;;
73840;SDS011;62183;49.006;12.102;2022-11-14T02:49:46;22.80;;;13.17;;
73840;SDS011;62183;49.006;12.102;2022-11-14T02:52:11;25.13;;;15.13;;
73840;SDS011;62183;49.006;12.102;2022-11-14T02:54:36;28.37;;;14.27;;
73840;SDS011;62183;49.006;12.102;2022-11-14T02:57:01;26.23;;;14.13;;
73840;SDS011;62183;49.006;12.102;2022-11-14T02:59:26;25.77;;;14.18;;
73840;SDS011;62183;49.006;12.102;2022-11-14T03:01:52;25.50;;;14.43;;
73840;SDS011;62183;49.006;12.102;2022-11-14T03:04:17;26.42;;;14.85;;
73840;SDS011;62183;49.006;12.102;2022-11-14T03:06:42;22.73;;;13.37;;
73840;SDS011;62183;49.006;12.102;2022-11-14T03:09:07;23.93;;;14.17;;
73840;SDS011;62183;49.006;12.102;2022-11-14T03:11:32;25.37;;;14.63;;
73840;SDS011;62183;49.006;12.102;2022-11-14T03:13:58;29.50;;;15.53;;
73840;SDS011;62183;49.006;12.102;2022-11-14T03:16:24;24.27;;;13.65;;
73840;SDS011;62183;49.006;12.102;2022-11-14T03:18:49;22.20;;;13.18;;
73840;SDS011;62183;49.006;12.102;2022-11-14T03:21:15;22.00;;;13.37;;
73840;SDS011;62183;49.006;12.102;2022-11-14T03:23:40;25.65;;;13.88;;
73840;SDS011;62183;49.006;12.102;2022-11-14T03:26:06;22.25;;;12.82;;
73840;SDS011;62183;49.006;12.102;2022-11-14T03:28:32;23.30;;;12.98;;
73840;SDS011;62183;49.006;12.102;2022-11-14T03:30:57;20.38;;;12.27;;
73840;SDS011;62183;49.006;12.102;2022-11-14T03:33:22;20.87;;;12.00;;
73840;SDS011;62183;49.006;12.102;2022-11-14T03:35:48;22.87;;;12.13;;
73840;SDS011;62183;49.006;12.102;2022-11-14T03:38:13;19.63;;;11.43;;
73840;SDS011;62183;49.006;12.102;2022-11-14T03:40:39;23.20;;;13.77;;
73840;SDS011;62183;49.006;12.102;2022-11-14T03:43:04;22.20;;;10.85;;
73840;SDS011;62183;49.006;12.102;2022-11-14T03:45:29;23.33;;;12.57;;
73840;SDS011;62183;49.006;12.102;2022-11-14T03:47:55;21.83;;;12.07;;
73840;SDS011;62183;49.006;12.102;2022-11-14T03:50:20;21.60;;;12.18;;
73840;SDS011;62183;49.006;12.102;2022-11-14T03:52:47;21.03;;;11.80;;
73840;SDS011;62183;49.006;12.102;2022-11-14T03:55:13;22.98;;;11.77;;
73840;SDS011;62183;49.006;12.102;2022-11-14T03:57:38;22.63;;;13.17;;
73840;SDS011;62183;49.006;12.102;2022-11-14T04:00:03;39.27;;;19.93;;
73840;SDS011;62183;49.006;12.102;2022-11-14T04:02:28;22.58;;;13.60;;
73840;SDS011;62183;49.006;12.102;2022-11-14T04:04:54;18.70;;;10.63;;
73840;SDS011;62183;49.006;12.102;2022-11-14T04:07:19;21.20;;;12.23;;
73840;SDS011;62183;49.006;12.102;2022-11-14T04:09:44;16.83;;;9.77;;
73840;SDS011;62183;49.006;12.102;2022-11-14T04:12:09;17.20;;;10.67;;
73840;SDS011;62183;49.006;12.102;2022-11-14T04:14:34;44.83;;;25.90;;
73840;SDS011;62183;49.006;12.102;2022-11-14T04:16:59;67.37;;;35.93;;
73840;SDS011;62183;49.006;12.102;2022-11-14T04:19:25;67.93;;;34.03;;
73840;SDS011;62183;49.006;12.102;2022-11-14T04:21:50;42.00;;;22.93;;
73840;SDS011;62183;49.006;12.102;2022-11-14T04:24:15;21.67;;;13.23;;
73840;SDS011;62183;49.006;12.102;2022-11-14T04:26:40;25.53;;;14.43;;
73840;SDS011;62183;49.006;12.102;2022-11-14T04:29:05;20.03;;;12.47;;
73840;SDS011;62183;49.006;12.102;2022-11-14T04:31:31;23.33;;;14.27;;
73840;SDS011;62183;49.006;12.102;2022-11-14T04:33:56;27.77;;;13.93;;
73840;SDS011;62183;49.006;12.102;2022-11-14T04:36:21;24.80;;;14.83;;
73840;SDS011;62183;49.006;12.102;2022-11-14T04:38:46;25.37;;;14.13;;
73840;SDS011;62183;49.006;12.102;2022-11-14T04:41:11;28.83;;;16.27;;
73840;SDS011;62183;49.006;12.102;2022-11-14T04:43:37;33.70;;;15.70;;
73840;SDS011;62183;49.006;12.102;2022-11-14T04:46:02;36.55;;;16.45;;
73840;SDS011;62183;49.006;12.102;2022-11-14T04:48:27;26.87;;;14.33;;
73840;SDS011;62183;49.006;12.102;2022-11-14T04:50:52;27.80;;;13.77;;
73840;SDS011;62183;49.006;12.102;2022-11-14T04:53:17;23.03;;;13.17;;
73840;SDS011;62183;49.006;12.102;2022-11-14T04:55:43;24.87;;;13.77;;
73840;SDS011;62183;49.006;12.102;2022-11-14T04:58:08;21.42;;;9.93;;
73840;SDS011;62183;49.006;12.102;2022-11-14T05:00:33;26.00;;;12.43;;
73840;SDS011;62183;49.006;12.102;2022-11-14T05:02:59;21.93;;;12.50;;
73840;SDS011;62183;49.006;12.102;2022-11-14T05:05:24;19.17;;;11.97;;
73840;SDS011;62183;49.006;12.102;2022-11-14T05:07:49;24.63;;;12.20;;
73840;SDS011;62183;49.006;12.102;2022-11-14T05:10:14;20.30;;;12.30;;
73840;SDS011;62183;49.006;12.102;2022-11-14T05:12:39;18.63;;;11.43;;
73840;SDS011;62183;49.006;12.102;2022-11-14T05:15:05;21.90;;;12.23;;
73840;SDS011;62183;49.006;12.102;2022-11-14T05:17:30;31.20;;;13.15;;
73840;SDS011;62183;49.006;12.102;2022-11-14T05:19:55;29.07;;;13.83;;
73840;SDS011;62183;49.006;12.102;2022-11-14T05:22:20;18.80;;;10.87;;
73840;SDS011;62183;49.006;12.102;2022-11-14T05:24:45;24.93;;;12.73;;
73840;SDS011;62183;49.006;12.102;2022-11-14T05:27:11;24.00;;;13.53;;
73840;SDS011;62183;49.006;12.102;2022-11-14T05:29:36;23.23;;;12.53;;
73840;SDS011;62183;49.006;12.102;2022-11-14T05:32:01;20.60;;;12.57;;
73840;SDS011;62183;49.006;12.102;2022-11-14T05:34:26;21.37;;;12.57;;
73840;SDS011;62183;49.006;12.102;2022-11-14T05:36:52;22.95;;;13.15;;
73840;SDS011;62183;49.006;12.102;2022-11-14T05:39:17;21.95;;;12.80;;
73840;SDS011;62183;49.006;12.102;2022-11-14T05:41:42;21.80;;;12.20;;
73840;SDS011;62183;49.006;12.102;2022-11-14T05:44:11;23.52;;;12.88;;
73840;SDS011;62183;49.006;12.102;2022-11-14T05:46:36;23.58;;;13.40;;
73840;SDS011;62183;49.006;12.102;2022-11-14T05:49:01;23.37;;;12.70;;
73840;SDS011;62183;49.006;12.102;2022-11-14T05:51:27;19.52;;;11.95;;
73840;SDS011;62183;49.006;12.102;2022-11-14T05:53:52;20.17;;;10.67;;
73840;SDS011;62183;49.006;12.102;2022-11-14T05:56:17;18.47;;;10.77;;
73840;SDS011;62183;49.006;12.102;2022-11-14T05:58:42;17.37;;;10.07;;
73840;SDS011;62183;49.006;12.102;2022-11-14T06:01:11;18.80;;;9.80;;
73840;SDS011;62183;49.006;12.102;2022-11-14T06:03:38;18.77;;;11.00;;
73840;SDS011;62183;49.006;12.102;2022-11-14T06:06:04;20.27;;;11.85;;
73840;SDS011;62183;49.006;12.102;2022-11-14T06:08:30;23.73;;;12.85;;
73840;SDS011;62183;49.006;12.102;2022-11-14T06:10:55;21.48;;;12.63;;
73840;SDS011;62183;49.006;12.102;2022-11-14T06:13:21;20.90;;;10.93;;
73840;SDS011;62183;49.006;12.102;2022-11-14T06:15:46;18.17;;;10.20;;
73840;SDS011;62183;49.006;12.102;2022-11-14T06:18:11;22.70;;;12.37;;
73840;SDS011;62183;49.006;12.102;2022-11-14T06:20:36;25.70;;;13.17;;
73840;SDS011;62183;49.006;12.102;2022-11-14T06:23:01;24.73;;;13.40;;
73840;SDS011;62183;49.006;12.102;2022-11-14T06:25:27;25.13;;;13.33;;
73840;SDS011;62183;49.006;12.102;2022-11-14T06:27:52;27.77;;;13.27;;
73840;SDS011;62183;49.006;12.102;2022-11-14T06:30:17;19.70;;;10.63;;
73840;SDS011;62183;49.006;12.102;2022-11-14T06:32:42;17.17;;;9.90;;
73840;SDS011;62183;49.006;12.102;2022-11-14T06:35:08;21.50;;;11.85;;
73840;SDS011;62183;49.006;12.102;2022-11-14T06:37:34;21.20;;;11.23;;
73840;SDS011;62183;49.006;12.102;2022-11-14T06:39:59;22.88;;;12.27;;
73840;SDS011;62183;49.006;12.102;2022-11-14T06:42:25;20.83;;;11.50;;
73840;SDS011;62183;49.006;12.102;2022-11-14T06:44:50;22.20;;;11.77;;
73840;SDS011;62183;49.006;12.102;2022-11-14T06:47:15;19.70;;;10.53;;
73840;SDS011;62183;49.006;12.102;2022-11-14T06:49:40;23.47;;;12.30;;
73840;SDS011;62183;49.006;12.102;2022-11-14T06:52:05;22.27;;;11.87;;
73840;SDS011;62183;49.006;12.102;2022-11-14T06:54:31;20.87;;;12.27;;
73840;SDS011;62183;49.006;12.102;2022-11-14T06:56:56;20.13;;;10.57;;
73840;SDS011;62183;49.006;12.102;2022-11-14T06:59:21;18.38;;;10.55;;
73840;SDS011;62183;49.006;12.102;2022-11-14T07:01:46;30.47;;;20.00;;
73840;SDS011;62183;49.006;12.102;2022-11-14T07:04:11;24.57;;;13.57;;
73840;SDS011;62183;49.006;12.102;2022-11-14T07:06:36;20.77;;;12.23;;
73840;SDS011;62183;49.006;12.102;2022-11-14T07:09:02;25.33;;;12.70;;
73840;SDS011;62183;49.006;12.102;2022-11-14T07:11:27;21.92;;;11.82;;
73840;SDS011;62183;49.006;12.102;2022-11-14T07:16:18;24.03;;;13.90;;
73840;SDS011;62183;49.006;12.102;2022-11-14T07:18:43;23.88;;;13.30;;
73840;SDS011;62183;49.006;12.102;2022-11-14T07:21:09;22.17;;;13.40;;
73840;SDS011;62183;49.006;12.102;2022-11-14T07:23:34;23.73;;;14.40;;
73840;SDS011;62183;49.006;12.102;2022-11-14T07:26:03;23.37;;;12.40;;
73840;SDS011;62183;49.006;12.102;2022-11-14T07:28:29;24.73;;;14.65;;
73840;SDS011;62183;49.006;12.102;2022-11-14T07:30:54;20.40;;;12.82;;
73840;SDS011;62183;49.006;12.102;2022-11-14T07:33:19;22.83;;;13.13;;
73840;SDS011;62183;49.006;12.102;2022-11-14T07:35:44;19.63;;;11.43;;
73840;SDS011;62183;49.006;12.102;2022-11-14T07:38:09;20.53;;;11.67;;
73840;SDS011;62183;49.006;12.102;2022-11-14T07:40:35;21.80;;;12.13;;
73840;SDS011;62183;49.006;12.102;2022-11-14T07:43:00;18.92;;;11.20;;
73840;SDS011;62183;49.006;12.102;2022-11-14T07:45:26;21.77;;;11.55;;
73840;SDS011;62183;49.006;12.102;2022-11-14T07:47:55;19.60;;;11.65;;
73840;SDS011;62183;49.006;12.102;2022-11-14T07:50:20;16.63;;;10.98;;
73840;SDS011;62183;49.006;12.102;2022-11-14T07:52:49;17.83;;;10.97;;
73840;SDS011;62183;49.006;12.102;2022-11-14T07:55:15;16.23;;;10.63;;
73840;SDS011;62183;49.006;12.102;2022-11-14T07:57:40;16.48;;;11.07;;
73840;SDS011;62183;49.006;12.102;2022-11-14T08:00:05;17.67;;;11.03;;
73840;SDS011;62183;49.006;12.102;2022-11-14T08:02:31;17.92;;;10.48;;
73840;SDS011;62183;49.006;12.102;2022-11-14T08:04:56;17.80;;;10.13;;
73840;SDS011;62183;49.006;12.102;2022-11-14T08:07:21;16.90;;;10.20;;
73840;SDS011;62183;49.006;12.102;2022-11-14T08:09:46;15.43;;;10.47;;
73840;SDS011;62183;49.006;12.102;2022-11-14T08:12:11;16.70;;;10.70;;
73840;SDS011;62183;49.006;12.102;2022-11-14T08:14:36;16.50;;;10.30;;
73840;SDS011;62183;49.006;12.102;2022-11-14T08:17:02;14.27;;;9.00;;
73840;SDS011;62183;49.006;12.102;2022-11-14T08:19:27;18.23;;;10.00;;
73840;SDS011;62183;49.006;12.102;2022-11-14T08:21:52;15.37;;;10.00;;
73840;SDS011;62183;49.006;12.102;2022-11-14T08:24:17;15.17;;;9.53;;
73840;SDS011;62183;49.006;12.102;2022-11-14T08:26:42;13.80;;;9.63;;
73840;SDS011;62183;49.006;12.102;2022-11-14T08:29:08;12.93;;;8.83;;
73840;SDS011;62183;49.006;12.102;2022-11-14T08:31:33;18.50;;;9.93;;
73840;SDS011;62183;49.006;12.102;2022-11-14T08:33:58;12.10;;;8.87;;
73840;SDS011;62183;49.006;12.102;2022-11-14T08:36:23;13.63;;;8.20;;
73840;SDS011;62183;49.006;12.102;2022-11-14T08:38:48;14.10;;;8.63;;
73840;SDS011;62183;49.006;12.102;2022-11-14T08:41:13;14.43;;;8.00;;
73840;SDS011;62183;49.006;12.102;2022-11-14T08:43:39;13.83;;;8.20;;
73840;SDS011;62183;49.006;12.102;2022-11-14T08:46:04;11.60;;;7.70;;
73840;SDS011;62183;49.006;12.102;2022-11-14T08:48:30;11.77;;;7.47;;
73840;SDS011;62183;49.006;12.102;2022-11-14T08:50:55;11.18;;;7.47;;
73840;SDS011;62183;49.006;12.102;2022-11-14T08:53:21;15.35;;;7.70;;
73840;SDS011;62183;49.006;12.102;2022-11-14T08:55:46;11.98;;;7.88;;
73840;SDS011;62183;49.006;12.102;2022-11-14T08:58:12;10.55;;;7.53;;
73840;SDS011;62183;49.006;12.102;2022-11-14T09:00:37;12.10;;;6.97;;
73840;SDS011;62183;49.006;12.102;2022-11-14T09:03:09;11.38;;;7.10;;
73840;SDS011;62183;49.006;12.102;2022-11-14T09:05:34;10.90;;;7.03;;
73840;SDS011;62183;49.006;12.102;2022-11-14T09:08:00;10.95;;;6.95;;
73840;SDS011;62183;49.006;12.102;2022-11-14T09:10:25;9.82;;;6.43;;
73840;SDS011;62183;49.006;12.102;2022-11-14T09:12:57;10.23;;;6.73;;
73840;SDS011;62183;49.006;12.102;2022-11-14T09:15:22;9.80;;;6.72;;
73840;SDS011;62183;49.006;12.102;2022-11-14T09:17:47;12.38;;;7.47;;
73840;SDS011;62183;49.006;12.102;2022-11-14T09:20:13;10.00;;;6.90;;
73840;SDS011;62183;49.006;12.102;2022-11-14T09:22:38;10.50;;;6.93;;
73840;SDS011;62183;49.006;12.102;2022-11-14T09:25:03;10.37;;;7.57;;
73840;SDS011;62183;49.006;12.102;2022-11-14T09:27:29;8.98;;;7.07;;
73840;SDS011;62183;49.006;12.102;2022-11-14T09:29:54;12.00;;;7.37;;
73840;SDS011;62183;49.006;12.102;2022-11-14T09:32:19;9.73;;;6.63;;
73840;SDS011;62183;49.006;12.102;2022-11-14T09:34:44;9.30;;;7.03;;
73840;SDS011;62183;49.006;12.102;2022-11-14T09:37:10;8.27;;;6.90;;
73840;SDS011;62183;49.006;12.102;2022-11-14T09:39:35;9.38;;;6.78;;
73840;SDS011;62183;49.006;12.102;2022-11-14T09:47:31;11.55;;;7.68;;
73840;SDS011;62183;49.006;12.102;2022-11-14T09:49:48;8.18;;;6.75;;
73840;SDS011;62183;49.006;12.102;2022-11-14T09:57:27;9.27;;;6.97;;
73840;SDS011;62183;49.006;12.102;2022-11-14T09:59:52;8.43;;;6.55;;
73840;SDS011;62183;49.006;12.102;2022-11-14T10:02:21;8.85;;;6.35;;
73840;SDS011;62183;49.006;12.102;2022-11-14T10:10:24;6.90;;;6.13;;
73840;SDS011;62183;49.006;12.102;2022-11-14T10:13:07;9.43;;;6.80;;
73840;SDS011;62183;49.006;12.102;2022-11-14T10:15:44;8.20;;;6.75;;
73840;SDS011;62183;49.006;12.102;2022-11-14T10:18:13;8.10;;;6.28;;
73840;SDS011;62183;49.006;12.102;2022-11-14T10:20:47;7.40;;;6.47;;
73840;SDS011;62183;49.006;12.102;2022-11-14T10:23:24;7.75;;;6.18;;
73840;SDS011;62183;49.006;12.102;2022-11-14T10:30:47;8.97;;;6.73;;
73840;SDS011;62183;49.006;12.102;2022-11-14T10:40:53;7.15;;;5.70;;
73840;SDS011;62183;49.006;12.102;2022-11-14T10:43:52;7.28;;;5.40;;
73840;SDS011;62183;49.006;12.102;2022-11-14T10:46:21;7.28;;;5.00;;
73840;SDS011;62183;49.006;12.102;2022-11-14T10:48:48;6.45;;;5.22;;
73840;SDS011;62183;49.006;12.102;2022-11-14T10:51:22;7.60;;;5.20;;
73840;SDS011;62183;49.006;12.102;2022-11-14T10:53:56;7.13;;;5.53;;
73840;SDS011;62183;49.006;12.102;2022-11-14T10:56:22;6.45;;;5.15;;
73840;SDS011;62183;49.006;12.102;2022-11-14T10:58:47;6.20;;;5.03;;
73840;SDS011;62183;49.006;12.102;2022-11-14T11:03:56;6.75;;;5.38;;
73840;SDS011;62183;49.006;12.102;2022-11-14T11:06:25;7.70;;;5.40;;
73840;SDS011;62183;49.006;12.102;2022-11-14T11:08:50;6.25;;;5.65;;
73840;SDS011;62183;49.006;12.102;2022-11-14T11:11:15;7.40;;;5.83;;
73840;SDS011;62183;49.006;12.102;2022-11-14T11:13:51;7.20;;;5.18;;
73840;SDS011;62183;49.006;12.102;2022-11-14T11:16:18;5.75;;;5.15;;
73840;SDS011;62183;49.006;12.102;2022-11-14T11:18:43;8.52;;;5.93;;
73840;SDS011;62183;49.006;12.102;2022-11-14T11:21:10;7.97;;;5.53;;
73840;SDS011;62183;49.006;12.102;2022-11-14T11:23:36;6.57;;;5.68;;
73840;SDS011;62183;49.006;12.102;2022-11-14T11:26:18;7.28;;;5.75;;
73840;SDS011;62183;49.006;12.102;2022-11-14T11:28:44;10.18;;;6.10;;
73840;SDS011;62183;49.006;12.102;2022-11-14T11:31:24;9.02;;;6.47;;
73840;SDS011;62183;49.006;12.102;2022-11-14T11:33:49;15.87;;;8.23;;
73840;SDS011;62183;49.006;12.102;2022-11-14T11:36:18;12.73;;;8.50;;
73840;SDS011;62183;49.006;12.102;2022-11-14T11:38:44;12.27;;;6.90;;
73840;SDS011;62183;49.006;12.102;2022-11-14T11:43:44;7.28;;;6.05;;
73840;SDS011;62183;49.006;12.102;2022-11-14T11:46:17;11.52;;;8.75;;
73840;SDS011;62183;49.006;12.102;2022-11-14T11:48:43;11.85;;;7.70;;
73840;SDS011;62183;49.006;12.102;2022-11-14T11:51:12;8.52;;;6.68;;
73840;SDS011;62183;49.006;12.102;2022-11-14T11:53:38;8.82;;;6.78;;
73840;SDS011;62183;49.006;12.102;2022-11-14T11:56:14;7.90;;;6.13;;
73840;SDS011;62183;49.006;12.102;2022-11-14T11:58:49;7.75;;;6.05;;
73840;SDS011;62183;49.006;12.102;2022-11-14T12:01:15;7.05;;;6.15;;
73840;SDS011;62183;49.006;12.102;2022-11-14T12:03:58;8.00;;;5.73;;
73840;SDS011;62183;49.006;12.102;2022-11-14T12:06:24;8.45;;;5.80;;
73840;SDS011;62183;49.006;12.102;2022-11-14T12:11:36;8.00;;;6.00;;
73840;SDS011;62183;49.006;12.102;2022-11-14T12:16:45;6.78;;;5.25;;
73840;SDS011;62183;49.006;12.102;2022-11-14T12:22:00;6.57;;;5.88;;
73840;SDS011;62183;49.006;12.102;2022-11-14T12:27:01;8.47;;;5.90;;
73840;SDS011;62183;49.006;12.102;2022-11-14T12:32:06;7.95;;;5.82;;
73840;SDS011;62183;49.006;12.102;2022-11-14T12:34:33;6.80;;;5.70;;
73840;SDS011;62183;49.006;12.102;2022-11-14T12:37:06;6.25;;;5.50;;
73840;SDS011;62183;49.006;12.102;2022-11-14T12:39:31;7.32;;;5.78;;
73840;SDS011;62183;49.006;12.102;2022-11-14T12:42:04;6.70;;;5.82;;
73840;SDS011;62183;49.006;12.102;2022-11-14T12:44:35;6.93;;;5.95;;
73840;SDS011;62183;49.006;12.102;2022-11-14T12:54:56;6.65;;;5.82;;
73840;SDS011;62183;49.006;12.102;2022-11-14T12:57:24;7.23;;;5.70;;
73840;SDS011;62183;49.006;12.102;2022-11-14T12:59:53;6.95;;;5.90;;
73840;SDS011;62183;49.006;12.102;2022-11-14T13:02:27;6.80;;;5.72;;
73840;SDS011;62183;49.006;12.102;2022-11-14T13:07:53;7.30;;;5.80;;
73840;SDS011;62183;49.006;12.102;2022-11-14T13:10:35;7.07;;;5.75;;
73840;SDS011;62183;49.006;12.102;2022-11-14T13:13:05;7.65;;;6.43;;
73840;SDS011;62183;49.006;12.102;2022-11-14T13:15:47;6.82;;;5.97;;
73840;SDS011;62183;49.006;12.102;2022-11-14T13:20:41;10.85;;;6.57;;
73840;SDS011;62183;49.006;12.102;2022-11-14T13:26:52;8.38;;;6.10;;
73840;SDS011;62183;49.006;12.102;2022-11-14T13:28:49;6.57;;;5.40;;
73840;SDS011;62183;49.006;12.102;2022-11-14T13:33:40;7.70;;;5.57;;
73840;SDS011;62183;49.006;12.102;2022-11-14T13:36:05;8.90;;;6.68;;
73840;SDS011;62183;49.006;12.102;2022-11-14T13:39:18;7.97;;;6.07;;
73840;SDS011;62183;49.006;12.102;2022-11-14T13:51:36;7.50;;;5.83;;
73840;SDS011;62183;49.006;12.102;2022-11-14T13:54:03;7.55;;;5.78;;
73840;SDS011;62183;49.006;12.102;2022-11-14T13:56:41;9.10;;;6.47;;
73840;SDS011;62183;49.006;12.102;2022-11-14T14:09:38;10.00;;;5.40;;
73840;SDS011;62183;49.006;12.102;2022-11-14T14:14:52;7.43;;;6.05;;
73840;SDS011;62183;49.006;12.102;2022-11-14T14:17:21;9.48;;;5.82;;
73840;SDS011;62183;49.006;12.102;2022-11-14T14:19:55;9.23;;;5.70;;
73840;SDS011;62183;49.006;12.102;2022-11-14T14:22:31;6.80;;;5.53;;
73840;SDS011;62183;49.006;12.102;2022-11-14T14:32:32;10.07;;;7.18;;
73840;SDS011;62183;49.006;12.102;2022-11-14T14:34:58;12.77;;;9.47;;
73840;SDS011;62183;49.006;12.102;2022-11-14T14:37:24;14.80;;;10.87;;
73840;SDS011;62183;49.006;12.102;2022-11-14T14:40:00;13.45;;;8.95;;
73840;SDS011;62183;49.006;12.102;2022-11-14T14:42:26;9.73;;;7.05;;
73840;SDS011;62183;49.006;12.102;2022-11-14T14:44:53;8.52;;;5.90;;
73840;SDS011;62183;49.006;12.102;2022-11-14T14:49:57;10.93;;;6.05;;
73840;SDS011;62183;49.006;12.102;2022-11-14T14:52:30;9.50;;;6.20;;
73840;SDS011;62183;49.006;12.102;2022-11-14T14:54:55;9.75;;;7.28;;
73840;SDS011;62183;49.006;12.102;2022-11-14T14:57:21;9.52;;;6.10;;
73840;SDS011;62183;49.006;12.102;2022-11-14T14:59:46;7.88;;;6.18;;
73840;SDS011;62183;49.006;12.102;2022-11-14T15:02:22;7.82;;;5.75;;
73840;SDS011;62183;49.006;12.102;2022-11-14T15:04:48;10.00;;;6.43;;
73840;SDS011;62183;49.006;12.102;2022-11-14T15:07:18;10.17;;;6.23;;
73840;SDS011;62183;49.006;12.102;2022-11-14T15:09:54;10.18;;;6.63;;
73840;SDS011;62183;49.006;12.102;2022-11-14T15:12:20;9.43;;;6.80;;
73840;SDS011;62183;49.006;12.102;2022-11-14T15:14:45;10.43;;;7.90;;
73840;SDS011;62183;49.006;12.102;2022-11-14T15:17:12;12.77;;;8.93;;
73840;SDS011;62183;49.006;12.102;2022-11-14T15:19:41;12.10;;;8.73;;
73840;SDS011;62183;49.006;12.102;2022-11-14T15:24:31;15.07;;;10.40;;
73840;SDS011;62183;49.006;12.102;2022-11-14T15:26:56;14.30;;;9.17;;
73840;SDS011;62183;49.006;12.102;2022-11-14T15:29:23;11.90;;;8.50;;
73840;SDS011;62183;49.006;12.102;2022-11-14T15:31:49;12.13;;;8.60;;
73840;SDS011;62183;49.006;12.102;2022-11-14T15:34:24;13.85;;;8.63;;
73840;SDS011;62183;49.006;12.102;2022-11-14T15:39:34;12.30;;;8.25;;
73840;SDS011;62183;49.006;12.102;2022-11-14T15:44:36;13.73;;;8.80;;
73840;SDS011;62183;49.006;12.102;2022-11-14T15:47:01;12.07;;;8.07;;
73840;SDS011;62183;49.006;12.102;2022-11-14T15:49:27;14.77;;;9.10;;
73840;SDS011;62183;49.006;12.102;2022-11-14T15:54:18;13.10;;;9.07;;
73840;SDS011;62183;49.006;12.102;2022-11-14T15:56:44;14.80;;;9.73;;
73840;SDS011;62183;49.006;12.102;2022-11-14T15:59:09;17.30;;;10.53;;
73840;SDS011;62183;49.006;12.102;2022-11-14T16:01:35;21.43;;;12.23;;
73840;SDS011;62183;49.006;12.102;2022-11-14T16:04:00;22.37;;;10.53;;
73840;SDS011;62183;49.006;12.102;2022-11-14T16:06:25;16.20;;;9.33;;
73840;SDS011;62183;49.006;12.102;2022-11-14T16:08:50;14.27;;;9.27;;